sensor_id;sensor_type;location;lat;lon;timestamp;pressure;altitude;pressure_sealevel;temperature;humidity
77590;BME280;66746;51.328;12.332;2023-04-03T00:01:17;101692.97;;;2.33;73.93
77590;BME280;66746;51.328;12.332;2023-04-03T00:03:43;101687.69;;;2.36;73.71
77590;BME280;66746;51.328;12.332;2023-04-03T00:06:11;101693.03;;;2.36;73.47
77590;BME280;66746;51.328;12.332;2023-04-03T00:08:39;101700.22;;;2.39;74.18
77590;BME280;66746;51.328;12.332;2023-04-03T00:11:06;101693.88;;;2.34;73.93
77590;BME280;66746;51.328;12.332;2023-04-03T00:13:33;101691.19;;;2.32;72.53
77590;BME280;66746;51.328;12.332;2023-04-03T00:16:00;101693.84;;;2.31;74.12
77590;BME280;66746;51.328;12.332;2023-04-03T00:18:27;101698.31;;;2.32;73.68
77590;BME280;66746;51.328;12.332;2023-04-03T00:20:53;101698.28;;;2.30;73.45
77590;BME280;66746;51.328;12.332;2023-04-03T00:23:21;101699.13;;;2.26;72.25
77590;BME280;66746;51.328;12.332;2023-04-03T00:25:47;101699.19;;;2.31;73.44
77590;BME280;66746;51.328;12.332;2023-04-03T00:28:14;101693.63;;;2.19;71.74
77590;BME280;66746;51.328;12.332;2023-04-03T00:30:41;101698.19;;;2.24;74.04
77590;BME280;66746;51.328;12.332;2023-04-03T00:33:09;101700.84;;;2.24;74.29
77590;BME280;66746;51.328;12.332;2023-04-03T00:35:37;101696.38;;;2.23;73.51
77590;BME280;66746;51.328;12.332;2023-04-03T00:38:04;101701.72;;;2.23;73.83
77590;BME280;66746;51.328;12.332;2023-04-03T00:40:35;101694.44;;;2.15;71.30
77590;BME280;66746;51.328;12.332;2023-04-03T00:43:10;101704.22;;;2.11;73.21
77590;BME280;66746;51.328;12.332;2023-04-03T00:45:39;101700.34;;;1.96;72.18
77590;BME280;66746;51.328;12.332;2023-04-03T00:48:08;101698.50;;;1.92;72.87
77590;BME280;66746;51.328;12.332;2023-04-03T00:50:39;101702.03;;;1.91;74.80
77590;BME280;66746;51.328;12.332;2023-04-03T00:53:09;101706.47;;;1.90;73.33
77590;BME280;66746;51.328;12.332;2023-04-03T00:55:39;101708.13;;;1.82;72.75
77590;BME280;66746;51.328;12.332;2023-04-03T00:58:06;101709.75;;;1.74;73.60
77590;BME280;66746;51.328;12.332;2023-04-03T01:00:35;101709.53;;;1.65;73.35
77590;BME280;66746;51.328;12.332;2023-04-03T01:03:04;101718.56;;;1.70;75.58
77590;BME280;66746;51.328;12.332;2023-04-03T01:05:31;101719.44;;;1.69;74.18
77590;BME280;66746;51.328;12.332;2023-04-03T01:07:59;101723.00;;;1.69;74.32
77590;BME280;66746;51.328;12.332;2023-04-03T01:10:27;101716.81;;;1.72;73.82
77590;BME280;66746;51.328;12.332;2023-04-03T01:12:55;101721.94;;;1.60;76.14
77590;BME280;66746;51.328;12.332;2023-04-03T01:15:24;101720.06;;;1.56;74.05
77590;BME280;66746;51.328;12.332;2023-04-03T01:17:53;101708.28;;;1.46;73.50
77590;BME280;66746;51.328;12.332;2023-04-03T01:20:44;101720.59;;;1.38;75.52
77590;BME280;66746;51.328;12.332;2023-04-03T01:23:25;101712.53;;;1.37;74.57
77590;BME280;66746;51.328;12.332;2023-04-03T01:25:56;101725.91;;;1.37;74.93
77590;BME280;66746;51.328;12.332;2023-04-03T01:28:26;101722.19;;;1.30;76.08
77590;BME280;66746;51.328;12.332;2023-04-03T01:31:00;101725.63;;;1.25;75.03
77590;BME280;66746;51.328;12.332;2023-04-03T01:33:34;101720.19;;;1.20;75.62
77590;BME280;66746;51.328;12.332;2023-04-03T01:36:00;101729.25;;;1.27;75.76
77590;BME280;66746;51.328;12.332;2023-04-03T01:38:28;101729.16;;;1.24;77.33
77590;BME280;66746;51.328;12.332;2023-04-03T01:40:56;101732.59;;;1.18;76.42
77590;BME280;66746;51.328;12.332;2023-04-03T01:43:22;101727.09;;;1.11;76.73
77590;BME280;66746;51.328;12.332;2023-04-03T01:45:49;101731.78;;;1.21;76.03
77590;BME280;66746;51.328;12.332;2023-04-03T01:48:16;101744.09;;;1.16;75.63
77590;BME280;66746;51.328;12.332;2023-04-03T01:50:44;101738.66;;;1.10;76.90
77590;BME280;66746;51.328;12.332;2023-04-03T01:53:11;101744.81;;;1.07;75.54
77590;BME280;66746;51.328;12.332;2023-04-03T01:55:37;101746.53;;;1.04;76.74
77590;BME280;66746;51.328;12.332;2023-04-03T01:58:04;101748.25;;;1.02;77.19
77590;BME280;66746;51.328;12.332;2023-04-03T02:00:30;101745.63;;;1.03;77.94
77590;BME280;66746;51.328;12.332;2023-04-03T02:02:57;101750.19;;;1.09;77.55
77590;BME280;66746;51.328;12.332;2023-04-03T02:05:25;101754.53;;;1.04;77.50
77590;BME280;66746;51.328;12.332;2023-04-03T02:07:52;101753.59;;;1.02;77.63
77590;BME280;66746;51.328;12.332;2023-04-03T02:10:19;101747.31;;;1.00;77.96
77590;BME280;66746;51.328;12.332;2023-04-03T02:12:45;101751.72;;;0.98;77.15
77590;BME280;66746;51.328;12.332;2023-04-03T02:15:12;101759.75;;;0.98;76.96
77590;BME280;66746;51.328;12.332;2023-04-03T02:17:38;101757.91;;;0.97;77.99
77590;BME280;66746;51.328;12.332;2023-04-03T02:20:06;101756.97;;;0.95;77.63
77590;BME280;66746;51.328;12.332;2023-04-03T02:22:33;101767.81;;;1.01;76.93
77590;BME280;66746;51.328;12.332;2023-04-03T02:25:01;101761.47;;;0.96;78.15
77590;BME280;66746;51.328;12.332;2023-04-03T02:27:28;101765.16;;;1.02;77.63
77590;BME280;66746;51.328;12.332;2023-04-03T02:29:54;101765.13;;;1.01;78.33
77590;BME280;66746;51.328;12.332;2023-04-03T02:32:21;101767.00;;;1.05;77.30
77590;BME280;66746;51.328;12.332;2023-04-03T02:34:47;101770.47;;;1.01;77.02
77590;BME280;66746;51.328;12.332;2023-04-03T02:37:14;101768.56;;;0.95;77.96
77590;BME280;66746;51.328;12.332;2023-04-03T02:39:43;101772.00;;;0.89;77.84
77590;BME280;66746;51.328;12.332;2023-04-03T02:42:11;101773.59;;;0.81;78.57
77590;BME280;66746;51.328;12.332;2023-04-03T02:44:38;101780.66;;;0.79;76.43
77590;BME280;66746;51.328;12.332;2023-04-03T02:47:04;101780.44;;;0.70;77.66
77590;BME280;66746;51.328;12.332;2023-04-03T02:49:32;101781.13;;;0.63;77.35
77590;BME280;66746;51.328;12.332;2023-04-03T02:51:58;101787.50;;;0.68;79.48
77590;BME280;66746;51.328;12.332;2023-04-03T02:54:25;101785.63;;;0.64;78.53
77590;BME280;66746;51.328;12.332;2023-04-03T02:56:53;101787.25;;;0.59;78.01
77590;BME280;66746;51.328;12.332;2023-04-03T02:59:21;101786.22;;;0.53;78.01
77590;BME280;66746;51.328;12.332;2023-04-03T03:01:48;101791.50;;;0.51;79.22
77590;BME280;66746;51.328;12.332;2023-04-03T03:04:15;101799.44;;;0.48;78.40
77590;BME280;66746;51.328;12.332;2023-04-03T03:06:41;101795.72;;;0.43;77.80
77590;BME280;66746;51.328;12.332;2023-04-03T03:09:10;101801.81;;;0.38;79.09
77590;BME280;66746;51.328;12.332;2023-04-03T03:11:36;101792.66;;;0.28;79.21
77590;BME280;66746;51.328;12.332;2023-04-03T03:14:03;101798.88;;;0.27;79.66
77590;BME280;66746;51.328;12.332;2023-04-03T03:16:31;101796.28;;;0.30;80.07
77590;BME280;66746;51.328;12.332;2023-04-03T03:18:57;101795.38;;;0.30;80.85
77590;BME280;66746;51.328;12.332;2023-04-03T03:21:24;101804.28;;;0.30;79.99
77590;BME280;66746;51.328;12.332;2023-04-03T03:23:51;101800.34;;;0.16;79.07
77590;BME280;66746;51.328;12.332;2023-04-03T03:26:17;101807.16;;;0.05;79.81
77590;BME280;66746;51.328;12.332;2023-04-03T03:28:44;101807.00;;;0.00;81.59
77590;BME280;66746;51.328;12.332;2023-04-03T03:31:11;101809.69;;;0.00;79.94
77590;BME280;66746;51.328;12.332;2023-04-03T03:33:40;101812.00;;;-0.12;80.05
77590;BME280;66746;51.328;12.332;2023-04-03T03:36:07;101815.38;;;-0.17;81.01
77590;BME280;66746;51.328;12.332;2023-04-03T03:38:35;101807.38;;;-0.17;81.64
77590;BME280;66746;51.328;12.332;2023-04-03T03:41:01;101815.66;;;-0.08;81.75
77590;BME280;66746;51.328;12.332;2023-04-03T03:43:29;101808.66;;;-0.05;81.85
77590;BME280;66746;51.328;12.332;2023-04-03T03:45:56;101817.63;;;-0.01;82.38
77590;BME280;66746;51.328;12.332;2023-04-03T03:48:24;101818.66;;;0.04;81.62
77590;BME280;66746;51.328;12.332;2023-04-03T03:50:52;101816.88;;;0.03;82.19
77590;BME280;66746;51.328;12.332;2023-04-03T03:53:22;101819.22;;;-0.08;81.14
77590;BME280;66746;51.328;12.332;2023-04-03T03:55:52;101825.88;;;-0.23;81.07
77590;BME280;66746;51.328;12.332;2023-04-03T03:58:21;101829.13;;;-0.33;81.16
77590;BME280;66746;51.328;12.332;2023-04-03T04:00:47;101826.34;;;-0.38;80.85
77590;BME280;66746;51.328;12.332;2023-04-03T04:03:14;101829.41;;;-0.24;82.28
77590;BME280;66746;51.328;12.332;2023-04-03T04:05:43;101833.69;;;-0.29;83.18
77590;BME280;66746;51.328;12.332;2023-04-03T04:08:12;101836.47;;;-0.26;82.85
77590;BME280;66746;51.328;12.332;2023-04-03T04:10:38;101836.63;;;-0.20;83.02
77590;BME280;66746;51.328;12.332;2023-04-03T04:13:06;101838.25;;;-0.25;82.50
77590;BME280;66746;51.328;12.332;2023-04-03T04:15:33;101843.94;;;-0.13;82.71
77590;BME280;66746;51.328;12.332;2023-04-03T04:18:00;101843.75;;;-0.19;81.75
77590;BME280;66746;51.328;12.332;2023-04-03T04:20:27;101849.00;;;-0.22;83.02
77590;BME280;66746;51.328;12.332;2023-04-03T04:22:53;101839.31;;;-0.20;83.22
77590;BME280;66746;51.328;12.332;2023-04-03T04:25:23;101843.50;;;-0.28;81.24
77590;BME280;66746;51.328;12.332;2023-04-03T04:27:49;101847.91;;;-0.29;82.29
77590;BME280;66746;51.328;12.332;2023-04-03T04:30:16;101843.50;;;-0.28;83.43
77590;BME280;66746;51.328;12.332;2023-04-03T04:32:45;101848.84;;;-0.28;84.01
77590;BME280;66746;51.328;12.332;2023-04-03T04:35:13;101852.34;;;-0.29;83.34
77590;BME280;66746;51.328;12.332;2023-04-03T04:37:44;101848.66;;;-0.34;81.98
77590;BME280;66746;51.328;12.332;2023-04-03T04:40:11;101853.91;;;-0.37;81.53
77590;BME280;66746;51.328;12.332;2023-04-03T04:42:39;101859.06;;;-0.42;83.45
77590;BME280;66746;51.328;12.332;2023-04-03T04:45:06;101854.66;;;-0.41;83.02
77590;BME280;66746;51.328;12.332;2023-04-03T04:47:36;101846.66;;;-0.41;83.33
77590;BME280;66746;51.328;12.332;2023-04-03T04:50:04;101860.94;;;-0.39;80.64
77590;BME280;66746;51.328;12.332;2023-04-03T04:52:31;101860.06;;;-0.38;82.22
77590;BME280;66746;51.328;12.332;2023-04-03T04:54:59;101863.00;;;-0.29;82.14
77590;BME280;66746;51.328;12.332;2023-04-03T04:57:25;101860.84;;;-0.42;81.28
77590;BME280;66746;51.328;12.332;2023-04-03T04:59:54;101860.34;;;-0.29;82.42
77590;BME280;66746;51.328;12.332;2023-04-03T05:02:20;101871.94;;;-0.27;81.70
77590;BME280;66746;51.328;12.332;2023-04-03T05:04:47;101875.28;;;-0.34;82.04
77590;BME280;66746;51.328;12.332;2023-04-03T05:07:19;101871.69;;;-0.36;81.82
77590;BME280;66746;51.328;12.332;2023-04-03T05:09:45;101872.44;;;-0.40;80.78
77590;BME280;66746;51.328;12.332;2023-04-03T05:12:13;101877.28;;;-0.27;81.83
77590;BME280;66746;51.328;12.332;2023-04-03T05:14:47;101879.34;;;-0.17;81.16
77590;BME280;66746;51.328;12.332;2023-04-03T05:17:15;101881.19;;;-0.16;81.48
77590;BME280;66746;51.328;12.332;2023-04-03T05:19:46;101880.13;;;-0.21;79.23
77590;BME280;66746;51.328;12.332;2023-04-03T05:22:14;101877.41;;;-0.23;80.45
77590;BME280;66746;51.328;12.332;2023-04-03T05:24:40;101874.59;;;-0.27;79.59
77590;BME280;66746;51.328;12.332;2023-04-03T05:27:07;101882.13;;;-0.14;80.66
77590;BME280;66746;51.328;12.332;2023-04-03T05:29:38;101886.63;;;-0.12;80.56
77590;BME280;66746;51.328;12.332;2023-04-03T05:32:04;101886.44;;;0.12;79.79
77590;BME280;66746;51.328;12.332;2023-04-03T05:34:32;101884.31;;;0.63;77.34
77590;BME280;66746;51.328;12.332;2023-04-03T05:36:59;101887.91;;;0.98;74.06
77590;BME280;66746;51.328;12.332;2023-04-03T05:39:27;101881.97;;;1.45;72.80
77590;BME280;66746;51.328;12.332;2023-04-03T05:41:53;101885.00;;;1.61;72.78
77590;BME280;66746;51.328;12.332;2023-04-03T05:44:20;101895.31;;;1.82;71.95
77590;BME280;66746;51.328;12.332;2023-04-03T05:46:48;101893.28;;;1.72;71.43
77590;BME280;66746;51.328;12.332;2023-04-03T05:49:15;101890.00;;;1.85;69.22
77590;BME280;66746;51.328;12.332;2023-04-03T05:51:43;101896.84;;;2.13;69.39
77590;BME280;66746;51.328;12.332;2023-04-03T05:54:20;101890.75;;;2.20;69.87
77590;BME280;66746;51.328;12.332;2023-04-03T05:56:48;101893.56;;;2.26;70.09
77590;BME280;66746;51.328;12.332;2023-04-03T05:59:15;101903.69;;;2.40;68.10
77590;BME280;66746;51.328;12.332;2023-04-03T06:01:43;101904.09;;;2.61;67.56
77590;BME280;66746;51.328;12.332;2023-04-03T06:04:09;101901.50;;;2.66;67.51
77590;BME280;66746;51.328;12.332;2023-04-03T06:06:46;101902.69;;;2.82;67.20
77590;BME280;66746;51.328;12.332;2023-04-03T06:09:13;101907.63;;;3.08;66.90
77590;BME280;66746;51.328;12.332;2023-04-03T06:11:39;101907.63;;;3.08;67.28
77590;BME280;66746;51.328;12.332;2023-04-03T06:14:06;101907.00;;;3.23;65.33
77590;BME280;66746;51.328;12.332;2023-04-03T06:16:33;101910.59;;;3.25;64.68
77590;BME280;66746;51.328;12.332;2023-04-03T06:19:02;101910.00;;;3.42;64.61
77590;BME280;66746;51.328;12.332;2023-04-03T06:21:29;101908.94;;;3.33;63.74
77590;BME280;66746;51.328;12.332;2023-04-03T06:23:56;101909.97;;;3.41;63.69
77590;BME280;66746;51.328;12.332;2023-04-03T06:26:23;101917.25;;;3.48;65.54
77590;BME280;66746;51.328;12.332;2023-04-03T06:28:49;101906.44;;;3.45;62.73
77590;BME280;66746;51.328;12.332;2023-04-03T06:31:16;101909.28;;;3.54;63.18
77590;BME280;66746;51.328;12.332;2023-04-03T06:33:42;101908.69;;;3.73;62.87
77590;BME280;66746;51.328;12.332;2023-04-03T06:36:10;101904.88;;;3.57;62.82
77590;BME280;66746;51.328;12.332;2023-04-03T06:38:37;101915.84;;;3.74;61.86
77590;BME280;66746;51.328;12.332;2023-04-03T06:41:05;101918.16;;;3.50;64.84
77590;BME280;66746;51.328;12.332;2023-04-03T06:43:32;101922.13;;;3.76;64.35
77590;BME280;66746;51.328;12.332;2023-04-03T06:46:00;101918.06;;;4.04;61.28
77590;BME280;66746;51.328;12.332;2023-04-03T06:48:26;101925.25;;;4.06;62.63
77590;BME280;66746;51.328;12.332;2023-04-03T06:50:53;101921.81;;;4.16;60.62
77590;BME280;66746;51.328;12.332;2023-04-03T06:53:19;101917.47;;;4.27;60.90
77590;BME280;66746;51.328;12.332;2023-04-03T06:55:46;101912.94;;;4.20;63.00
77590;BME280;66746;51.328;12.332;2023-04-03T06:58:14;101926.19;;;4.10;61.58
77590;BME280;66746;51.328;12.332;2023-04-03T07:00:40;101922.69;;;4.15;61.42
77590;BME280;66746;51.328;12.332;2023-04-03T07:03:07;101915.72;;;4.29;59.29
77590;BME280;66746;51.328;12.332;2023-04-03T07:05:33;101920.59;;;4.62;59.23
77590;BME280;66746;51.328;12.332;2023-04-03T07:08:00;101932.44;;;4.78;57.80
77590;BME280;66746;51.328;12.332;2023-04-03T07:10:27;101925.44;;;4.95;58.04
77590;BME280;66746;51.328;12.332;2023-04-03T07:12:53;101931.59;;;4.83;58.76
77590;BME280;66746;51.328;12.332;2023-04-03T07:15:21;101923.75;;;5.03;57.85
77590;BME280;66746;51.328;12.332;2023-04-03T07:17:47;101926.56;;;5.16;55.89
77590;BME280;66746;51.328;12.332;2023-04-03T07:20:14;101931.19;;;5.34;56.39
77590;BME280;66746;51.328;12.332;2023-04-03T07:22:40;101934.75;;;5.33;54.29
77590;BME280;66746;51.328;12.332;2023-04-03T07:25:07;101943.97;;;5.59;55.56
77590;BME280;66746;51.328;12.332;2023-04-03T07:27:34;101937.56;;;5.45;52.56
77590;BME280;66746;51.328;12.332;2023-04-03T07:30:00;101941.16;;;5.49;53.20
77590;BME280;66746;51.328;12.332;2023-04-03T07:32:28;101951.97;;;5.52;53.03
77590;BME280;66746;51.328;12.332;2023-04-03T07:34:55;101938.28;;;5.24;52.93
77590;BME280;66746;51.328;12.332;2023-04-03T07:37:21;101952.53;;;5.16;54.14
77590;BME280;66746;51.328;12.332;2023-04-03T07:43:18;101949.44;;;5.71;52.93
77590;BME280;66746;51.328;12.332;2023-04-03T07:45:44;101952.81;;;5.46;54.76
77590;BME280;66746;51.328;12.332;2023-04-03T07:48:13;101945.88;;;5.78;52.43
77590;BME280;66746;51.328;12.332;2023-04-03T07:50:39;101959.56;;;6.01;51.03
77590;BME280;66746;51.328;12.332;2023-04-03T07:53:06;101955.09;;;6.07;52.38
77590;BME280;66746;51.328;12.332;2023-04-03T07:55:33;101955.88;;;5.87;51.80
77590;BME280;66746;51.328;12.332;2023-04-03T07:58:00;101955.97;;;6.02;52.73
77590;BME280;66746;51.328;12.332;2023-04-03T08:00:26;101964.13;;;6.12;50.25
77590;BME280;66746;51.328;12.332;2023-04-03T08:02:53;101963.16;;;6.07;52.01
77590;BME280;66746;51.328;12.332;2023-04-03T08:05:21;101949.91;;;6.44;50.25
77590;BME280;66746;51.328;12.332;2023-04-03T08:07:48;101948.13;;;6.49;50.98
77590;BME280;66746;51.328;12.332;2023-04-03T08:10:15;101950.91;;;6.70;49.06
77590;BME280;66746;51.328;12.332;2023-04-03T08:12:41;101957.19;;;6.63;50.28
77590;BME280;66746;51.328;12.332;2023-04-03T08:15:08;101951.72;;;6.48;50.24
77590;BME280;66746;51.328;12.332;2023-04-03T08:17:35;101949.75;;;6.13;49.43
77590;BME280;66746;51.328;12.332;2023-04-03T08:20:02;101941.31;;;5.65;49.64
77590;BME280;66746;51.328;12.332;2023-04-03T08:22:30;101949.41;;;5.68;51.58
77590;BME280;66746;51.328;12.332;2023-04-03T08:24:57;101948.03;;;6.24;51.55
77590;BME280;66746;51.328;12.332;2023-04-03T08:27:25;101942.84;;;6.82;49.68
77590;BME280;66746;51.328;12.332;2023-04-03T08:29:54;101936.66;;;7.30;48.80
77590;BME280;66746;51.328;12.332;2023-04-03T08:32:21;101941.16;;;7.47;49.98
77590;BME280;66746;51.328;12.332;2023-04-03T08:34:47;101938.47;;;7.61;48.04
77590;BME280;66746;51.328;12.332;2023-04-03T08:37:14;101943.88;;;7.49;49.37
77590;BME280;66746;51.328;12.332;2023-04-03T08:39:42;101942.94;;;7.81;46.60
77590;BME280;66746;51.328;12.332;2023-04-03T08:42:15;101943.81;;;7.91;46.84
77590;BME280;66746;51.328;12.332;2023-04-03T08:44:46;101934.78;;;8.27;47.85
77590;BME280;66746;51.328;12.332;2023-04-03T08:47:21;101938.47;;;7.34;48.63
77590;BME280;66746;51.328;12.332;2023-04-03T08:49:52;101948.19;;;6.64;50.46
77590;BME280;66746;51.328;12.332;2023-04-03T08:52:25;101951.41;;;5.87;50.63
77590;BME280;66746;51.328;12.332;2023-04-03T08:54:58;101950.56;;;6.00;52.52
77590;BME280;66746;51.328;12.332;2023-04-03T08:57:30;101942.13;;;5.58;52.53
77590;BME280;66746;51.328;12.332;2023-04-03T09:00:03;101956.94;;;5.09;54.42
77590;BME280;66746;51.328;12.332;2023-04-03T09:02:35;101956.06;;;5.12;53.96
77590;BME280;66746;51.328;12.332;2023-04-03T09:05:11;101955.81;;;4.88;53.49
77590;BME280;66746;51.328;12.332;2023-04-03T09:07:43;101968.38;;;4.89;54.76
77590;BME280;66746;51.328;12.332;2023-04-03T09:10:19;101966.91;;;5.18;52.86
77590;BME280;66746;51.328;12.332;2023-04-03T09:12:53;101966.91;;;5.21;52.13
77590;BME280;66746;51.328;12.332;2023-04-03T09:15:22;101964.84;;;5.89;50.32
77590;BME280;66746;51.328;12.332;2023-04-03T09:18:05;101964.28;;;6.46;50.79
77590;BME280;66746;51.328;12.332;2023-04-03T09:20:43;101958.09;;;6.62;46.95
77590;BME280;66746;51.328;12.332;2023-04-03T09:23:18;101960.91;;;7.05;44.82
77590;BME280;66746;51.328;12.332;2023-04-03T09:25:48;101968.13;;;7.23;47.79
77590;BME280;66746;51.328;12.332;2023-04-03T09:28:16;101958.25;;;7.57;42.08
77590;BME280;66746;51.328;12.332;2023-04-03T09:30:42;101954.66;;;7.73;42.18
77590;BME280;66746;51.328;12.332;2023-04-03T09:33:09;101950.16;;;7.73;43.32
77590;BME280;66746;51.328;12.332;2023-04-03T09:35:37;101952.88;;;7.87;44.25
77590;BME280;66746;51.328;12.332;2023-04-03T09:38:17;101939.19;;;8.55;44.19
77590;BME280;66746;51.328;12.332;2023-04-03T09:40:45;101944.66;;;8.40;40.60
77590;BME280;66746;51.328;12.332;2023-04-03T09:43:22;101955.47;;;8.19;44.75
77590;BME280;66746;51.328;12.332;2023-04-03T09:45:50;101942.00;;;8.29;43.76
77590;BME280;66746;51.328;12.332;2023-04-03T09:48:19;101945.66;;;7.66;43.99
77590;BME280;66746;51.328;12.332;2023-04-03T09:50:58;101941.16;;;7.38;44.70
77590;BME280;66746;51.328;12.332;2023-04-03T09:53:34;101945.66;;;7.41;46.83
77590;BME280;66746;51.328;12.332;2023-04-03T09:56:04;101948.31;;;7.93;44.86
77590;BME280;66746;51.328;12.332;2023-04-03T09:58:35;101943.78;;;8.33;42.54
77590;BME280;66746;51.328;12.332;2023-04-03T10:01:25;101940.97;;;8.65;40.69
77590;BME280;66746;51.328;12.332;2023-04-03T10:04:04;101936.06;;;9.29;41.67
77590;BME280;66746;51.328;12.332;2023-04-03T10:06:33;101937.00;;;9.23;42.52
77590;BME280;66746;51.328;12.332;2023-04-03T10:09:02;101939.63;;;9.32;41.31
77590;BME280;66746;51.328;12.332;2023-04-03T10:11:28;101935.06;;;9.40;37.56
77590;BME280;66746;51.328;12.332;2023-04-03T10:13:57;101924.84;;;8.44;37.65
77590;BME280;66746;51.328;12.332;2023-04-03T10:16:27;101935.59;;;8.53;43.23
77590;BME280;66746;51.328;12.332;2023-04-03T10:19:05;101929.97;;;8.98;39.92
77590;BME280;66746;51.328;12.332;2023-04-03T10:21:40;101924.34;;;9.25;39.83
77590;BME280;66746;51.328;12.332;2023-04-03T10:24:14;101923.22;;;9.52;37.48
77590;BME280;66746;51.328;12.332;2023-04-03T10:26:49;101926.13;;;9.26;40.44
77590;BME280;66746;51.328;12.332;2023-04-03T10:29:27;101916.91;;;9.54;36.94
77590;BME280;66746;51.328;12.332;2023-04-03T10:32:06;101918.72;;;9.55;37.25
77590;BME280;66746;51.328;12.332;2023-04-03T10:34:39;101908.13;;;9.25;39.31
77590;BME280;66746;51.328;12.332;2023-04-03T10:37:14;101920.59;;;9.44;39.27
77590;BME280;66746;51.328;12.332;2023-04-03T10:39:51;101904.56;;;9.17;41.10
77590;BME280;66746;51.328;12.332;2023-04-03T10:42:26;101905.91;;;9.69;38.08
77590;BME280;66746;51.328;12.332;2023-04-03T10:45:21;101903.94;;;9.88;35.91
77590;BME280;66746;51.328;12.332;2023-04-03T10:47:59;101913.44;;;9.34;40.31
77590;BME280;66746;51.328;12.332;2023-04-03T10:50:35;101904.28;;;9.53;37.45
77590;BME280;66746;51.328;12.332;2023-04-03T10:53:10;101908.31;;;10.04;36.55
77590;BME280;66746;51.328;12.332;2023-04-03T10:55:43;101906.31;;;10.23;37.30
77590;BME280;66746;51.328;12.332;2023-04-03T10:58:19;101903.59;;;10.23;40.12
77590;BME280;66746;51.328;12.332;2023-04-03T11:00:50;101900.66;;;10.41;39.05
77590;BME280;66746;51.328;12.332;2023-04-03T11:03:27;101895.97;;;10.55;38.36
77590;BME280;66746;51.328;12.332;2023-04-03T11:05:55;101888.66;;;10.60;36.41
77590;BME280;66746;51.328;12.332;2023-04-03T11:08:27;101903.31;;;10.47;36.41
77590;BME280;66746;51.328;12.332;2023-04-03T11:10:57;101892.00;;;10.80;35.55
77590;BME280;66746;51.328;12.332;2023-04-03T11:13:28;101874.78;;;10.83;37.50
77590;BME280;66746;51.328;12.332;2023-04-03T11:16:00;101899.50;;;9.82;38.15
77590;BME280;66746;51.328;12.332;2023-04-03T11:18:35;101894.81;;;8.92;39.00
77590;BME280;66746;51.328;12.332;2023-04-03T11:21:07;101894.25;;;8.30;40.96
77590;BME280;66746;51.328;12.332;2023-04-03T11:23:36;101893.47;;;7.57;41.22
77590;BME280;66746;51.328;12.332;2023-04-03T11:26:16;101898.88;;;7.64;42.39
77590;BME280;66746;51.328;12.332;2023-04-03T11:28:44;101883.31;;;8.55;38.69
77590;BME280;66746;51.328;12.332;2023-04-03T11:31:29;101882.88;;;9.20;40.55
77590;BME280;66746;51.328;12.332;2023-04-03T11:34:08;101880.88;;;9.46;40.31
77590;BME280;66746;51.328;12.332;2023-04-03T11:36:40;101872.88;;;9.28;39.55
77590;BME280;66746;51.328;12.332;2023-04-03T11:39:17;101884.25;;;9.69;36.28
77590;BME280;66746;51.328;12.332;2023-04-03T11:41:45;101875.81;;;9.01;36.30
77590;BME280;66746;51.328;12.332;2023-04-03T11:44:33;101868.41;;;9.24;36.58
77590;BME280;66746;51.328;12.332;2023-04-03T11:47:01;101857.84;;;9.93;34.36
77590;BME280;66746;51.328;12.332;2023-04-03T11:49:54;101867.31;;;9.48;37.07
77590;BME280;66746;51.328;12.332;2023-04-03T11:52:55;101861.75;;;8.45;41.13
77590;BME280;66746;51.328;12.332;2023-04-03T11:55:53;101871.84;;;7.79;43.59
77590;BME280;66746;51.328;12.332;2023-04-03T11:58:21;101879.97;;;7.60;43.96
77590;BME280;66746;51.328;12.332;2023-04-03T12:01:00;101884.50;;;7.43;43.00
77590;BME280;66746;51.328;12.332;2023-04-03T12:10:16;101861.47;;;8.87;40.52
77590;BME280;66746;51.328;12.332;2023-04-03T12:12:58;101856.31;;;8.51;40.10
77590;BME280;66746;51.328;12.332;2023-04-03T12:15:44;101852.03;;;7.88;42.72
77590;BME280;66746;51.328;12.332;2023-04-03T12:18:56;101858.41;;;7.25;41.46
77590;BME280;66746;51.328;12.332;2023-04-03T12:21:23;101858.41;;;7.13;44.40
77590;BME280;66746;51.328;12.332;2023-04-03T12:24:13;101853.00;;;7.61;43.76
77590;BME280;66746;51.328;12.332;2023-04-03T12:27:01;101842.97;;;8.09;42.66
77590;BME280;66746;51.328;12.332;2023-04-03T12:29:33;101848.44;;;7.78;42.21
77590;BME280;66746;51.328;12.332;2023-04-03T12:32:11;101849.38;;;7.62;45.01
77590;BME280;66746;51.328;12.332;2023-04-03T12:34:53;101847.56;;;7.60;45.96
77590;BME280;66746;51.328;12.332;2023-04-03T12:37:34;101853.88;;;7.66;44.17
77590;BME280;66746;51.328;12.332;2023-04-03T12:40:14;101843.13;;;7.39;41.60
77590;BME280;66746;51.328;12.332;2023-04-03T12:42:59;101846.72;;;7.46;45.58
77590;BME280;66746;51.328;12.332;2023-04-03T12:45:40;101843.09;;;7.53;45.18
77590;BME280;66746;51.328;12.332;2023-04-03T12:48:14;101850.28;;;7.64;42.16
77590;BME280;66746;51.328;12.332;2023-04-03T12:50:41;101837.69;;;7.65;42.37
77590;BME280;66746;51.328;12.332;2023-04-03T12:53:12;101844.00;;;7.50;43.86
77590;BME280;66746;51.328;12.332;2023-04-03T12:55:40;101847.63;;;7.19;43.92
77590;BME280;66746;51.328;12.332;2023-04-03T12:58:21;101841.34;;;7.15;46.47
77590;BME280;66746;51.328;12.332;2023-04-03T13:00:59;101844.94;;;7.11;46.70
77590;BME280;66746;51.328;12.332;2023-04-03T13:03:26;101844.91;;;7.13;44.84
77590;BME280;66746;51.328;12.332;2023-04-03T13:05:55;101844.94;;;7.22;46.63
77590;BME280;66746;51.328;12.332;2023-04-03T13:08:23;101845.81;;;7.33;44.76
77590;BME280;66746;51.328;12.332;2023-04-03T13:10:55;101839.50;;;7.51;45.89
77590;BME280;66746;51.328;12.332;2023-04-03T13:13:25;101844.00;;;7.53;43.11